Time;durP1;ratioP1;P1;durP2;ratioP2;P2;SDS_P1;SDS_P2;PMS_P1;PMS_P2;Temp;Humidity;BMP_temperature;BMP_pressure;BME280_temperature;BME280_humidity;BME280_pressure;Samples;Min_cycle;Max_cycle;Signal;HPM_P1;HPM_P2
2021/12/09 00:02:19;;;;;;;27.52;15.50;;;5.40;99.90;;;;;;5033635;28;20069;-63
2021/12/09 00:04:45;;;;;;;28.45;16.95;;;5.50;99.90;;;;;;5034090;28;20491;-64
2021/12/09 00:07:11;;;;;;;27.95;15.07;;;5.40;99.90;;;;;;5033840;28;20139;-66
2021/12/09 00:09:37;;;;;;;30.73;16.42;;;5.50;99.90;;;;;;5033128;28;20063;-63
2021/12/09 00:12:04;;;;;;;25.70;14.85;;;5.50;99.90;;;;;;5032584;28;20080;-57
2021/12/09 00:14:33;;;;;;;28.90;16.08;;;5.40;99.90;;;;;;5033362;28;20045;-54
2021/12/09 00:17:03;;;;;;;27.70;15.50;;;5.50;99.90;;;;;;5033886;28;20036;-67
2021/12/09 00:19:29;;;;;;;27.67;15.02;;;5.60;99.90;;;;;;5048382;28;20486;-64
2021/12/09 00:21:56;;;;;;;28.65;14.57;;;5.60;99.90;;;;;;5033816;28;20025;-59
2021/12/09 00:24:22;;;;;;;28.70;16.70;;;5.50;99.90;;;;;;5033487;28;20040;-59
2021/12/09 00:26:48;;;;;;;26.85;16.63;;;5.50;99.90;;;;;;5033639;28;20025;-67
2021/12/09 00:29:15;;;;;;;26.77;15.30;;;5.40;99.90;;;;;;5033508;28;20112;-66
2021/12/09 00:31:41;;;;;;;30.25;16.30;;;5.60;99.90;;;;;;5033789;28;20033;-62
2021/12/09 00:34:07;;;;;;;25.95;14.30;;;5.50;99.90;;;;;;5033820;28;20022;-64
2021/12/09 00:36:41;;;;;;;27.83;14.80;;;5.50;99.90;;;;;;5048976;28;20026;-57
2021/12/09 00:39:09;;;;;;;26.23;15.43;;;5.50;99.90;;;;;;5048987;28;20037;-61
2021/12/09 00:41:35;;;;;;;30.35;15.75;;;5.50;99.90;;;;;;5033253;28;20179;-56
2021/12/09 00:44:01;;;;;;;28.75;16.10;;;5.40;99.90;;;;;;5033505;28;20076;-66
2021/12/09 00:46:27;;;;;;;27.35;16.05;;;5.40;99.90;;;;;;5033075;28;20061;-68
2021/12/09 00:48:53;;;;;;;28.13;15.23;;;5.50;99.90;;;;;;5048631;28;20327;-62
2021/12/09 00:51:19;;;;;;;26.13;14.13;;;5.50;99.90;;;;;;5031652;28;20033;-63
2021/12/09 00:53:45;;;;;;;23.42;13.82;;;5.50;99.90;;;;;;5033261;28;20032;-66
2021/12/09 00:56:13;;;;;;;27.98;15.77;;;5.60;99.90;;;;;;5032758;28;20123;-68
2021/12/09 00:58:41;;;;;;;28.42;16.60;;;5.60;99.90;;;;;;5048567;28;20039;-61
2021/12/09 01:01:08;;;;;;;22.10;15.23;;;5.60;99.90;;;;;;5033005;28;20038;-55
2021/12/09 01:03:35;;;;;;;22.65;15.02;;;5.50;99.90;;;;;;5032181;28;20489;-57
2021/12/09 01:06:01;;;;;;;28.98;15.25;;;5.60;99.90;;;;;;5033052;28;20049;-59
2021/12/09 01:08:27;;;;;;;25.02;14.68;;;5.60;99.90;;;;;;5032437;28;20408;-59
2021/12/09 01:10:53;;;;;;;28.60;15.50;;;5.50;99.90;;;;;;5032675;28;20077;-60
2021/12/09 01:13:19;;;;;;;26.58;14.40;;;5.50;99.90;;;;;;5032081;28;20088;-56
2021/12/09 01:15:44;;;;;;;25.30;15.55;;;5.60;99.90;;;;;;5033010;28;20026;-63
2021/12/09 01:18:10;;;;;;;24.38;14.05;;;5.50;99.90;;;;;;5032544;28;20041;-67
2021/12/09 01:20:36;;;;;;;25.98;14.35;;;5.60;99.90;;;;;;5032997;28;20034;-60
2021/12/09 01:23:03;;;;;;;24.17;14.30;;;5.60;99.90;;;;;;5032853;28;20037;-59
2021/12/09 01:25:35;;;;;;;26.63;14.02;;;5.60;99.90;;;;;;5031916;28;20037;-67
2021/12/09 01:28:02;;;;;;;26.60;13.65;;;5.70;99.90;;;;;;5033024;28;20091;-60
2021/12/09 01:30:27;;;;;;;29.67;14.85;;;5.60;99.90;;;;;;5031938;28;20108;-58
2021/12/09 01:32:55;;;;;;;24.40;14.82;;;5.70;99.90;;;;;;5032505;28;20193;-62
2021/12/09 01:35:24;;;;;;;24.00;13.38;;;5.70;99.90;;;;;;5031520;28;20030;-59
2021/12/09 01:37:54;;;;;;;22.60;13.82;;;5.70;99.90;;;;;;5032334;28;20036;-58
2021/12/09 01:40:21;;;;;;;22.52;14.00;;;5.70;99.90;;;;;;5047053;28;20035;-63
2021/12/09 01:42:47;;;;;;;20.98;12.75;;;5.70;99.90;;;;;;5031794;28;20029;-57
2021/12/09 01:45:13;;;;;;;20.35;12.65;;;5.70;99.90;;;;;;5031750;28;20083;-78
2021/12/09 01:47:39;;;;;;;20.70;12.00;;;5.70;99.90;;;;;;5032201;28;20033;-66
2021/12/09 01:50:06;;;;;;;21.83;11.68;;;5.80;99.90;;;;;;5031684;28;20467;-63
2021/12/09 01:52:32;;;;;;;21.30;11.98;;;5.80;99.90;;;;;;5031437;28;20037;-60
2021/12/09 01:54:57;;;;;;;19.88;11.15;;;5.80;99.90;;;;;;5031956;28;20025;-59
2021/12/09 01:57:23;;;;;;;18.45;11.35;;;5.70;99.90;;;;;;5031077;28;20030;-58
2021/12/09 01:59:49;;;;;;;20.58;11.23;;;5.70;99.90;;;;;;5031584;28;20029;-64
2021/12/09 02:02:15;;;;;;;20.60;11.13;;;5.70;99.90;;;;;;5031345;28;20044;-65
2021/12/09 02:04:41;;;;;;;21.25;11.48;;;5.70;99.90;;;;;;5031936;28;20116;-63
2021/12/09 02:07:06;;;;;;;21.23;10.15;;;5.60;99.90;;;;;;5047376;28;20146;-57
2021/12/09 02:09:32;;;;;;;22.85;11.25;;;5.60;99.90;;;;;;5031373;28;20117;-61
2021/12/09 02:11:58;;;;;;;21.40;10.02;;;5.50;99.90;;;;;;5032154;28;20467;-58
2021/12/09 02:14:23;;;;;;;23.85;12.00;;;5.60;99.90;;;;;;5031011;28;20049;-59
2021/12/09 02:16:49;;;;;;;18.70;10.73;;;5.60;99.90;;;;;;5032520;28;20045;-62
2021/12/09 02:19:15;;;;;;;17.10;10.90;;;5.50;99.90;;;;;;5031448;28;20454;-71
2021/12/09 02:21:42;;;;;;;25.55;11.20;;;5.40;99.90;;;;;;5030710;28;20029;-59
2021/12/09 02:24:11;;;;;;;20.63;10.02;;;5.40;99.90;;;;;;5031970;28;20025;-59
2021/12/09 02:26:42;;;;;;;23.83;10.98;;;5.30;99.90;;;;;;5046712;28;20021;-56
2021/12/09 02:29:12;;;;;;;22.52;11.55;;;5.20;99.90;;;;;;5032042;28;20037;-62
2021/12/09 02:31:39;;;;;;;20.50;10.52;;;5.20;99.90;;;;;;5031443;28;20120;-65
2021/12/09 02:34:06;;;;;;;24.00;10.82;;;5.20;99.90;;;;;;5031478;28;20437;-67
2021/12/09 02:36:36;;;;;;;25.20;12.02;;;5.10;99.90;;;;;;5031261;28;20034;-60
2021/12/09 02:39:04;;;;;;;23.38;11.63;;;5.20;99.90;;;;;;5030201;28;20060;-56
2021/12/09 02:41:30;;;;;;;21.48;10.95;;;5.10;99.90;;;;;;5030741;28;20109;-61
2021/12/09 02:44:01;;;;;;;24.15;11.82;;;5.10;99.90;;;;;;5031487;28;20064;-64
2021/12/09 02:46:27;;;;;;;19.83;11.02;;;5.10;99.90;;;;;;5031092;28;20024;-58
2021/12/09 02:48:53;;;;;;;19.90;11.20;;;5.20;99.90;;;;;;5031570;28;20033;-64
2021/12/09 02:51:20;;;;;;;19.50;11.80;;;5.00;99.90;;;;;;5030689;28;20064;-67
2021/12/09 02:53:45;;;;;;;23.77;11.57;;;5.10;99.90;;;;;;5031392;28;20120;-60
2021/12/09 02:56:12;;;;;;;23.38;11.93;;;5.00;99.90;;;;;;5030109;28;20531;-63
2021/12/09 02:58:38;;;;;;;22.60;12.10;;;4.90;99.90;;;;;;5030628;28;20045;-62
2021/12/09 03:01:33;;;;;;;16.00;11.40;;;4.90;99.90;;;;;;5030955;28;20131;-59
2021/12/09 03:04:01;;;;;;;23.58;12.35;;;4.90;99.90;;;;;;5031174;28;20076;-66
2021/12/09 03:06:37;;;;;;;18.58;10.68;;;4.90;99.90;;;;;;5030514;28;20467;-68
2021/12/09 03:09:07;;;;;;;20.52;11.52;;;4.80;99.90;;;;;;5046435;28;20025;-66
2021/12/09 03:11:33;;;;;;;27.40;13.70;;;4.70;99.90;;;;;;5030773;28;20061;-61
2021/12/09 03:14:00;;;;;;;19.80;12.15;;;4.70;99.90;;;;;;5029579;28;20052;-56
2021/12/09 03:16:26;;;;;;;24.92;12.77;;;4.70;99.90;;;;;;5030249;28;20139;-55
2021/12/09 03:18:57;;;;;;;24.50;12.65;;;4.60;99.90;;;;;;5029450;28;20481;-67
2021/12/09 03:21:26;;;;;;;24.42;13.18;;;4.60;99.90;;;;;;5030451;28;20115;-66
2021/12/09 03:23:53;;;;;;;26.30;12.80;;;4.60;99.90;;;;;;5029454;28;20037;-60
2021/12/09 03:26:25;;;;;;;25.85;14.30;;;4.60;99.90;;;;;;5047364;28;20041;-72
2021/12/09 03:28:56;;;;;;;23.02;14.18;;;4.60;99.90;;;;;;5033621;28;20040;-56
2021/12/09 03:31:21;;;;;;;35.17;14.43;;;4.50;99.90;;;;;;5049739;28;20530;-67
2021/12/09 03:33:47;;;;;;;25.20;12.73;;;4.60;99.90;;;;;;5033451;28;20061;-59
2021/12/09 03:36:14;;;;;;;25.67;12.75;;;4.60;99.90;;;;;;5033554;28;20120;-69
2021/12/09 03:38:40;;;;;;;25.35;13.18;;;4.60;99.90;;;;;;5032954;28;20034;-65
2021/12/09 03:41:05;;;;;;;24.85;13.52;;;4.70;99.90;;;;;;5034634;28;20045;-68
2021/12/09 03:43:32;;;;;;;26.33;14.05;;;4.40;99.90;;;;;;5034429;28;20033;-54
2021/12/09 03:45:58;;;;;;;30.77;15.75;;;4.40;99.90;;;;;;5034879;28;20033;-61
2021/12/09 03:48:26;;;;;;;28.55;13.43;;;4.30;99.90;;;;;;5034160;28;20044;-61
2021/12/09 03:50:53;;;;;;;26.38;13.77;;;4.30;99.90;;;;;;5034925;28;20429;-58
2021/12/09 03:53:19;;;;;;;21.80;12.25;;;4.30;99.90;;;;;;5034091;28;20106;-58
2021/12/09 03:55:45;;;;;;;19.70;12.75;;;4.20;99.90;;;;;;5034426;28;20034;-59
2021/12/09 03:58:11;;;;;;;26.40;13.20;;;4.20;99.90;;;;;;5034736;28;20068;-59
2021/12/09 04:00:37;;;;;;;22.23;12.27;;;4.10;99.90;;;;;;5033301;28;20451;-55
2021/12/09 04:03:03;;;;;;;23.45;12.55;;;4.00;99.90;;;;;;5033919;28;20042;-68
2021/12/09 04:05:29;;;;;;;28.75;12.90;;;4.00;99.90;;;;;;5033479;28;20033;-60
2021/12/09 04:07:55;;;;;;;25.60;12.27;;;4.00;99.90;;;;;;5034180;28;20056;-67
2021/12/09 04:10:21;;;;;;;22.30;12.00;;;4.10;99.90;;;;;;5033343;28;20026;-81
2021/12/09 04:12:47;;;;;;;20.20;11.60;;;4.10;99.90;;;;;;5033809;28;20044;-63
2021/12/09 04:15:13;;;;;;;25.67;11.93;;;4.10;99.90;;;;;;5034250;28;20029;-62
2021/12/09 04:17:39;;;;;;;19.88;11.65;;;4.10;99.90;;;;;;5033356;28;20129;-69
2021/12/09 04:20:07;;;;;;;20.50;10.50;;;4.20;99.90;;;;;;5032956;28;20417;-59
2021/12/09 04:22:32;;;;;;;21.60;12.77;;;4.20;99.90;;;;;;5033600;28;20037;-68
2021/12/09 04:24:58;;;;;;;18.65;10.70;;;4.30;99.90;;;;;;5032591;28;20336;-59
2021/12/09 04:27:25;;;;;;;16.67;10.35;;;4.30;99.90;;;;;;5033251;28;20026;-65
2021/12/09 04:29:51;;;;;;;21.55;10.45;;;4.40;99.90;;;;;;5033727;28;20025;-61
2021/12/09 04:32:17;;;;;;;22.30;10.63;;;4.30;99.90;;;;;;5032508;28;20030;-62
2021/12/09 04:34:44;;;;;;;18.58;10.90;;;4.30;99.90;;;;;;5033299;28;20040;-67
2021/12/09 04:37:10;;;;;;;20.40;9.65;;;4.30;99.90;;;;;;5032729;28;20029;-60
2021/12/09 04:39:36;;;;;;;19.27;10.25;;;4.30;99.90;;;;;;5031342;28;20368;-65
2021/12/09 04:42:03;;;;;;;20.98;11.27;;;4.20;99.90;;;;;;5033656;28;20425;-58
2021/12/09 04:44:29;;;;;;;16.08;8.73;;;4.30;99.90;;;;;;5031643;28;20124;-59
2021/12/09 04:46:56;;;;;;;18.80;9.65;;;4.30;99.90;;;;;;5033105;28;20113;-60
2021/12/09 04:49:22;;;;;;;18.40;10.40;;;4.30;99.90;;;;;;5033244;28;20060;-57
2021/12/09 04:51:48;;;;;;;19.40;10.77;;;4.20;99.90;;;;;;5031733;28;20030;-63
2021/12/09 04:54:13;;;;;;;14.23;9.23;;;4.20;99.90;;;;;;5032412;28;20026;-56
2021/12/09 04:56:39;;;;;;;16.00;9.80;;;4.20;99.90;;;;;;5031642;28;20175;-65
2021/12/09 04:59:06;;;;;;;21.27;9.32;;;4.20;99.90;;;;;;5033001;28;20033;-63
2021/12/09 05:01:33;;;;;;;18.55;9.32;;;4.20;99.90;;;;;;5033209;28;20045;-69
2021/12/09 05:03:59;;;;;;;14.88;8.80;;;4.30;99.90;;;;;;5033888;28;20037;-64
2021/12/09 05:06:25;;;;;;;16.25;9.55;;;4.00;99.90;;;;;;5032954;28;20036;-74
2021/12/09 05:08:51;;;;;;;17.02;9.55;;;4.10;99.90;;;;;;5033190;28;20026;-56
2021/12/09 05:11:47;;;;;;;21.83;9.50;;;4.20;99.90;;;;;;5032956;28;20029;-61
2021/12/09 05:14:18;;;;;;;17.63;9.15;;;4.10;99.90;;;;;;5032962;28;20032;-61
2021/12/09 05:16:45;;;;;;;13.38;8.45;;;4.20;99.90;;;;;;5030682;28;20053;-57
2021/12/09 05:19:11;;;;;;;21.60;8.95;;;4.30;99.90;;;;;;5032102;28;20049;-56
2021/12/09 05:21:39;;;;;;;16.25;8.80;;;4.20;99.90;;;;;;5031745;28;20043;-56
2021/12/09 05:24:07;;;;;;;13.80;8.13;;;4.20;99.90;;;;;;5032371;28;20455;-60
2021/12/09 05:26:40;;;;;;;12.85;7.53;;;4.10;99.90;;;;;;5032049;28;20084;-60
2021/12/09 05:29:06;;;;;;;15.85;8.00;;;4.10;99.90;;;;;;5032796;28;20022;-61
2021/12/09 05:34:16;;;;;;;17.83;8.43;;;4.20;99.90;;;;;;5032749;28;20080;-59
2021/12/09 05:36:42;;;;;;;15.88;8.52;;;4.30;99.90;;;;;;5031915;28;20463;-61
2021/12/09 05:39:10;;;;;;;16.48;8.32;;;4.40;99.90;;;;;;5032669;28;20364;-61
2021/12/09 05:41:37;;;;;;;15.52;8.23;;;4.20;99.90;;;;;;5030431;28;20116;-61
2021/12/09 05:44:05;;;;;;;15.75;8.68;;;4.30;99.90;;;;;;5032316;28;20037;-60
2021/12/09 05:46:34;;;;;;;14.60;7.40;;;4.30;99.90;;;;;;5030519;28;20414;-62
2021/12/09 05:49:00;;;;;;;15.32;7.85;;;4.10;99.90;;;;;;5032145;28;20037;-67
2021/12/09 05:51:26;;;;;;;13.95;7.68;;;4.10;99.90;;;;;;5032483;28;20044;-59
2021/12/09 05:53:52;;;;;;;19.63;7.43;;;4.20;99.90;;;;;;5031496;28;20033;-60
2021/12/09 05:56:19;;;;;;;14.32;7.85;;;4.10;99.90;;;;;;5030867;28;20478;-60
2021/12/09 05:58:45;;;;;;;13.00;7.72;;;4.10;99.90;;;;;;5031279;28;20033;-61
2021/12/09 06:01:11;;;;;;;14.55;7.53;;;4.10;99.90;;;;;;5030331;28;20033;-61
2021/12/09 06:03:36;;;;;;;17.83;7.57;;;4.00;99.90;;;;;;5030948;28;20036;-60
2021/12/09 06:06:02;;;;;;;14.27;7.45;;;4.10;99.90;;;;;;5032078;28;20033;-61
2021/12/09 06:08:28;;;;;;;16.73;7.53;;;4.20;99.90;;;;;;5031424;28;20033;-81
2021/12/09 06:10:54;;;;;;;12.73;6.55;;;3.90;99.90;;;;;;5030257;28;20025;-59
2021/12/09 06:13:22;;;;;;;15.23;8.13;;;3.80;99.90;;;;;;5031874;28;20112;-60
2021/12/09 06:15:48;;;;;;;14.18;7.63;;;3.60;99.90;;;;;;5029881;28;20179;-60
2021/12/09 06:18:14;;;;;;;19.50;8.10;;;3.70;99.90;;;;;;5031675;28;20455;-60
2021/12/09 06:20:40;;;;;;;20.33;8.60;;;3.70;99.90;;;;;;5029683;28;20446;-63
2021/12/09 06:23:06;;;;;;;14.32;8.73;;;3.70;99.90;;;;;;5030229;28;20113;-62
2021/12/09 06:25:32;;;;;;;21.80;8.70;;;3.60;99.90;;;;;;5030877;28;20030;-61
2021/12/09 06:27:58;;;;;;;16.50;7.97;;;3.60;99.90;;;;;;5030255;28;20029;-58
2021/12/09 06:30:25;;;;;;;22.20;8.15;;;3.60;99.90;;;;;;5030937;28;20435;-60
2021/12/09 06:32:50;;;;;;;16.10;8.07;;;3.70;99.90;;;;;;5030437;28;20398;-58
2021/12/09 06:35:17;;;;;;;18.77;8.00;;;3.70;99.90;;;;;;5029918;28;20075;-64
2021/12/09 06:37:45;;;;;;;15.45;8.65;;;3.60;99.90;;;;;;5028922;28;20132;-60
2021/12/09 06:40:13;;;;;;;15.40;8.10;;;3.70;99.90;;;;;;5029966;28;20483;-61
2021/12/09 06:42:40;;;;;;;13.48;6.63;;;3.70;99.90;;;;;;5030480;28;20029;-65
2021/12/09 06:45:08;;;;;;;15.38;7.35;;;3.80;99.90;;;;;;5031110;28;20034;-64
2021/12/09 06:47:33;;;;;;;12.43;7.43;;;3.90;99.90;;;;;;5028400;28;20071;-60
2021/12/09 06:49:59;;;;;;;13.85;6.85;;;3.80;99.90;;;;;;5029356;28;20141;-61
2021/12/09 06:52:25;;;;;;;11.70;6.45;;;3.90;99.90;;;;;;5029275;28;20052;-60
2021/12/09 06:54:50;;;;;;;16.25;6.25;;;3.90;99.90;;;;;;5030431;28;20025;-57
2021/12/09 06:57:16;;;;;;;13.73;7.13;;;3.90;99.90;;;;;;5030815;28;20029;-58
2021/12/09 06:59:42;;;;;;;13.32;5.75;;;3.90;99.90;;;;;;5028294;28;20375;-59
2021/12/09 07:02:08;;;;;;;15.25;7.50;;;4.00;99.90;;;;;;5033510;28;20130;-60
2021/12/09 07:04:34;;;;;;;18.60;6.47;;;3.90;99.90;;;;;;5033972;28;20048;-61
2021/12/09 07:07:00;;;;;;;15.10;7.10;;;3.80;99.90;;;;;;5034475;28;20040;-61
2021/12/09 07:09:29;;;;;;;14.20;6.00;;;3.70;99.90;;;;;;5033569;28;20022;-60
2021/12/09 07:11:56;;;;;;;19.38;6.90;;;3.80;99.90;;;;;;5034157;28;20039;-61
2021/12/09 07:14:22;;;;;;;14.60;6.78;;;3.80;99.90;;;;;;5034883;28;20033;-62
2021/12/09 07:16:48;;;;;;;16.38;7.18;;;3.80;99.90;;;;;;5034579;28;20028;-60
2021/12/09 07:19:13;;;;;;;14.35;6.95;;;3.70;99.90;;;;;;5033129;28;20045;-61
2021/12/09 07:21:39;;;;;;;12.73;7.80;;;3.60;99.90;;;;;;5033955;28;20041;-60
2021/12/09 07:24:05;;;;;;;13.48;7.10;;;3.60;99.90;;;;;;5033440;28;20025;-61
2021/12/09 07:26:32;;;;;;;13.57;8.30;;;3.50;99.90;;;;;;5034842;28;20047;-59
2021/12/09 07:28:59;;;;;;;16.42;8.35;;;3.60;99.90;;;;;;5034213;28;20033;-62
2021/12/09 07:31:26;;;;;;;16.08;8.05;;;3.60;99.90;;;;;;5032925;28;20037;-60
2021/12/09 07:33:52;;;;;;;19.58;7.45;;;3.30;99.90;;;;;;5033824;28;20102;-61
2021/12/09 07:36:18;;;;;;;19.33;7.75;;;3.40;99.90;;;;;;5033386;28;20356;-62
2021/12/09 07:38:46;;;;;;;16.77;7.22;;;3.40;99.90;;;;;;5033981;28;20129;-61
2021/12/09 07:41:13;;;;;;;16.75;6.90;;;3.50;99.90;;;;;;5033132;28;20077;-62
2021/12/09 07:43:39;;;;;;;15.82;7.22;;;3.60;99.90;;;;;;5032412;28;20378;-62
2021/12/09 07:46:04;;;;;;;11.20;6.07;;;3.70;99.90;;;;;;5034478;28;20051;-61
2021/12/09 07:48:30;;;;;;;11.02;6.28;;;3.80;99.90;;;;;;5032937;28;20041;-62
2021/12/09 07:50:56;;;;;;;19.35;6.88;;;3.80;99.90;;;;;;5033429;28;20033;-62
2021/12/09 07:53:22;;;;;;;19.92;7.43;;;3.90;99.90;;;;;;5033958;28;20411;-62
2021/12/09 07:55:49;;;;;;;26.60;8.05;;;3.90;99.90;;;;;;5015993;28;20028;-62
2021/12/09 07:58:15;;;;;;;14.05;7.20;;;3.90;99.90;;;;;;5032777;28;20030;-61
2021/12/09 08:00:41;;;;;;;18.33;7.10;;;3.90;99.90;;;;;;5033458;28;20030;-61
2021/12/09 08:03:07;;;;;;;17.27;6.57;;;3.90;99.90;;;;;;5033798;28;20439;-61
2021/12/09 08:05:36;;;;;;;13.73;6.55;;;3.90;99.90;;;;;;5033779;28;20120;-60
2021/12/09 08:08:03;;;;;;;13.98;6.15;;;4.00;99.90;;;;;;5033983;28;20028;-61
2021/12/09 08:10:29;;;;;;;14.27;5.65;;;4.00;99.90;;;;;;5033807;28;20076;-61
2021/12/09 08:12:55;;;;;;;14.35;6.53;;;3.90;99.90;;;;;;5033180;28;20029;-61
2021/12/09 08:15:20;;;;;;;13.95;7.55;;;3.90;99.90;;;;;;5033918;28;20105;-61
2021/12/09 08:17:59;;;;;;;12.52;5.47;;;3.90;99.90;;;;;;5032929;28;20454;-61
2021/12/09 08:20:26;;;;;;;13.68;5.85;;;4.10;99.90;;;;;;5033504;28;20026;-59
2021/12/09 08:22:52;;;;;;;22.08;6.53;;;4.20;99.90;;;;;;5031360;28;20462;-61
2021/12/09 08:25:18;;;;;;;13.23;5.72;;;4.40;99.90;;;;;;5033305;28;20120;-60
2021/12/09 08:27:44;;;;;;;19.23;7.63;;;4.50;99.90;;;;;;5032981;28;20471;-61
2021/12/09 08:30:13;;;;;;;13.95;5.63;;;4.90;99.90;;;;;;5032253;28;20124;-69
2021/12/09 08:32:39;;;;;;;13.38;5.95;;;5.00;99.90;;;;;;5031745;28;20029;-63
2021/12/09 08:35:05;;;;;;;13.30;6.10;;;5.10;99.90;;;;;;5033461;28;20021;-62
2021/12/09 08:37:32;;;;;;;7.82;4.38;;;5.20;99.90;;;;;;5033196;28;20461;-62
2021/12/09 08:39:58;;;;;;;10.63;5.97;;;5.10;99.90;;;;;;5031580;28;20025;-61
2021/12/09 08:42:27;;;;;;;11.93;5.10;;;5.00;99.90;;;;;;5032534;28;20490;-60
2021/12/09 08:44:54;;;;;;;14.98;6.15;;;5.00;99.90;;;;;;5031502;28;20039;-62
2021/12/09 08:47:19;;;;;;;16.25;5.75;;;4.90;99.90;;;;;;5032773;28;20041;-61
2021/12/09 08:49:45;;;;;;;14.27;5.90;;;4.90;99.90;;;;;;5032525;28;20025;-62
2021/12/09 08:52:11;;;;;;;14.07;5.95;;;4.70;99.90;;;;;;5031525;28;20060;-62
2021/12/09 08:54:38;;;;;;;10.55;5.97;;;4.60;99.90;;;;;;5032547;28;20092;-61
2021/12/09 08:57:04;;;;;;;11.40;6.07;;;4.40;99.90;;;;;;5031416;28;20029;-62
2021/12/09 08:59:30;;;;;;;8.68;5.72;;;4.20;99.90;;;;;;5031284;28;20033;-62
2021/12/09 09:01:56;;;;;;;12.38;5.85;;;4.20;99.90;;;;;;5031845;28;20076;-63
2021/12/09 09:04:22;;;;;;;13.98;6.60;;;4.20;99.90;;;;;;5032430;28;20527;-62
2021/12/09 09:06:57;;;;;;;11.07;6.18;;;4.20;99.90;;;;;;5032104;28;20032;-60
2021/12/09 09:09:27;;;;;;;15.32;6.53;;;4.10;99.90;;;;;;5032032;28;20030;-61
2021/12/09 09:11:54;;;;;;;13.10;5.65;;;4.00;99.90;;;;;;5031142;28;20034;-57
2021/12/09 09:14:20;;;;;;;12.63;6.13;;;3.80;99.90;;;;;;5030970;28;20490;-61
2021/12/09 09:16:46;;;;;;;16.63;7.13;;;3.60;99.90;;;;;;5030687;28;20032;-62
2021/12/09 09:19:13;;;;;;;11.55;6.65;;;3.70;99.90;;;;;;5031539;28;20045;-65
2021/12/09 09:21:40;;;;;;;11.40;6.82;;;3.70;99.90;;;;;;5031375;28;20055;-61
2021/12/09 09:24:06;;;;;;;18.02;8.05;;;3.60;99.90;;;;;;5031382;28;20076;-61
2021/12/09 09:26:32;;;;;;;12.32;7.38;;;3.70;99.90;;;;;;5032555;28;20033;-62
2021/12/09 09:28:59;;;;;;;16.05;7.35;;;3.70;99.90;;;;;;5031674;28;20116;-58
2021/12/09 09:31:29;;;;;;;20.83;7.18;;;3.80;99.90;;;;;;5032244;28;20037;-61
2021/12/09 09:33:55;;;;;;;14.50;6.97;;;4.00;99.90;;;;;;5030702;28;20048;-62
2021/12/09 09:36:21;;;;;;;11.65;7.38;;;4.10;99.90;;;;;;5031906;28;20025;-61
2021/12/09 09:38:47;;;;;;;13.48;7.10;;;4.20;99.90;;;;;;5031928;28;20033;-62
2021/12/09 09:41:16;;;;;;;13.30;6.65;;;4.20;99.90;;;;;;5030800;28;20056;-62
2021/12/09 09:46:17;;;;;;;14.68;7.05;;;4.20;99.90;;;;;;5031922;28;20057;-61
2021/12/09 09:48:44;;;;;;;14.43;6.15;;;4.30;99.90;;;;;;5030236;28;20250;-62
2021/12/09 09:51:10;;;;;;;17.20;6.78;;;4.30;99.90;;;;;;5031925;28;20041;-61
2021/12/09 09:53:38;;;;;;;13.05;6.45;;;4.30;99.90;;;;;;5032194;28;20408;-62
2021/12/09 09:56:13;;;;;;;18.63;7.25;;;4.40;99.90;;;;;;5031380;28;20478;-61
2021/12/09 09:58:40;;;;;;;12.95;6.22;;;4.30;99.90;;;;;;5031905;28;20044;-61
2021/12/09 10:01:06;;;;;;;10.73;7.10;;;4.30;99.90;;;;;;5030052;28;20034;-61
2021/12/09 10:03:40;;;;;;;11.65;5.60;;;4.10;99.90;;;;;;5030067;28;20031;-61
2021/12/09 10:06:06;;;;;;;13.98;6.60;;;4.10;99.90;;;;;;5030500;28;20509;-61
2021/12/09 10:08:32;;;;;;;12.32;7.15;;;3.90;99.90;;;;;;5031550;28;20025;-59
2021/12/09 10:10:58;;;;;;;11.30;6.40;;;3.90;99.90;;;;;;5029977;28;20030;-60
2021/12/09 10:13:29;;;;;;;14.07;7.80;;;3.80;99.90;;;;;;5031721;28;20091;-61
2021/12/09 10:15:55;;;;;;;12.82;6.50;;;3.90;99.90;;;;;;5031407;28;20071;-61
2021/12/09 10:18:43;;;;;;;11.13;6.65;;;4.00;99.90;;;;;;5031652;28;20050;-60
2021/12/09 10:21:19;;;;;;;9.60;6.53;;;4.20;99.90;;;;;;5030494;28;20462;-60
2021/12/09 10:23:50;;;;;;;14.20;6.45;;;4.50;99.90;;;;;;5029726;28;20074;-62
2021/12/09 10:26:25;;;;;;;11.43;5.80;;;4.50;99.90;;;;;;5030382;28;20022;-61
2021/12/09 10:28:53;;;;;;;11.95;5.70;;;4.60;99.90;;;;;;5029554;28;20037;-61
2021/12/09 10:31:29;;;;;;;9.40;5.95;;;4.70;99.90;;;;;;5031442;28;20198;-61
2021/12/09 10:37:00;;;;;;;12.60;6.10;;;4.90;99.90;;;;;;5030512;28;20098;-62
2021/12/09 10:39:30;;;;;;;11.17;5.53;;;4.60;99.90;;;;;;5021421;28;20041;-62
2021/12/09 10:41:58;;;;;;;19.95;6.78;;;4.60;99.90;;;;;;5031129;28;20374;-61
2021/12/09 10:44:31;;;;;;;10.85;5.68;;;4.40;99.90;;;;;;5031713;28;20033;-61
2021/12/09 10:47:07;;;;;;;12.48;5.72;;;4.30;99.90;;;;;;5031369;28;20030;-65
2021/12/09 10:49:52;;;;;;;10.13;6.25;;;4.30;99.90;;;;;;5031664;28;20032;-66
2021/12/09 10:52:25;;;;;;;12.13;5.93;;;4.40;99.90;;;;;;5029838;28;20029;-60
2021/12/09 10:54:50;;;;;;;12.45;5.80;;;4.50;99.90;;;;;;5029469;28;20029;-67
2021/12/09 10:57:31;;;;;;;10.52;4.80;;;4.60;99.90;;;;;;5029858;28;20021;-62
2021/12/09 11:00:12;;;;;;;10.20;4.80;;;4.60;99.90;;;;;;5028801;28;20589;-61
2021/12/09 11:02:55;;;;;;;6.60;4.27;;;4.70;99.90;;;;;;5031057;28;20033;-60
2021/12/09 11:05:20;;;;;;;9.00;4.60;;;4.70;99.90;;;;;;5030677;28;20263;-62
2021/12/09 11:07:46;;;;;;;9.35;4.00;;;4.80;99.90;;;;;;5030335;28;20025;-76
2021/12/09 11:10:24;;;;;;;8.55;4.20;;;4.80;99.90;;;;;;5029218;28;20029;-60
2021/12/09 11:12:53;;;;;;;12.20;6.40;;;4.70;99.90;;;;;;5030173;28;20472;-62
2021/12/09 11:15:21;;;;;;;10.48;4.75;;;4.90;99.90;;;;;;5030610;28;20051;-61
2021/12/09 11:17:50;;;;;;;11.95;4.32;;;4.90;99.90;;;;;;5028215;28;20030;-79
2021/12/09 11:20:43;;;;;;;6.45;3.55;;;4.90;99.90;;;;;;5029095;28;20030;-61
2021/12/09 11:23:26;;;;;;;12.32;4.38;;;4.80;99.90;;;;;;5028339;28;20454;-61
2021/12/09 11:25:52;;;;;;;9.30;4.00;;;4.90;99.90;;;;;;5029895;28;20037;-60
2021/12/09 11:28:18;;;;;;;7.60;3.33;;;4.90;99.90;;;;;;5029169;28;20123;-62
2021/12/09 11:31:10;;;;;;;9.93;4.00;;;4.90;99.90;;;;;;5029313;28;20478;-61
2021/12/09 11:33:41;;;;;;;10.18;3.75;;;5.10;99.90;;;;;;5029502;28;20060;-62
2021/12/09 11:36:09;;;;;;;17.15;5.05;;;5.20;99.90;;;;;;5028279;28;20305;-57
2021/12/09 11:39:11;;;;;;;15.75;4.20;;;5.20;99.90;;;;;;5028990;28;20052;-61
2021/12/09 11:41:39;;;;;;;8.05;3.15;;;5.20;99.90;;;;;;5029895;28;20044;-61
2021/12/09 11:44:08;;;;;;;7.07;3.50;;;5.40;99.90;;;;;;5029831;28;20037;-61
2021/12/09 11:46:38;;;;;;;6.78;3.05;;;5.40;99.90;;;;;;5030908;28;20489;-59
2021/12/09 11:49:04;;;;;;;8.02;3.63;;;5.20;99.90;;;;;;5031796;28;20036;-60
2021/12/09 11:51:31;;;;;;;13.07;4.97;;;5.40;99.90;;;;;;5034369;28;20029;-62
2021/12/09 11:54:03;;;;;;;9.52;3.72;;;5.50;99.90;;;;;;5032656;28;20032;-61
2021/12/09 11:56:45;;;;;;;;;;;5.50;99.90;;;;;;5032838;28;20032;-61
2021/12/09 12:11:25;;;;;;;10.57;5.07;;;8.50;99.90;;;;;;5033376;28;20499;-56
2021/12/09 12:13:57;;;;;;;11.20;3.95;;;9.00;99.90;;;;;;5032955;28;20478;-62
2021/12/09 12:16:57;;;;;;;6.80;3.15;;;7.80;99.90;;;;;;5033803;28;20029;-67
2021/12/09 12:19:51;;;;;;;8.98;3.92;;;6.30;99.90;;;;;;5019157;28;20049;-61
2021/12/09 12:26:09;;;;;;;10.00;4.10;;;5.60;99.90;;;;;;5032409;28;20041;-63
2021/12/09 12:28:59;;;;;;;15.15;4.68;;;5.50;99.90;;;;;;5032630;28;20068;-61
2021/12/09 12:35:03;;;;;;;10.60;3.90;;;5.40;99.90;;;;;;5032125;28;20455;-62
2021/12/09 12:37:47;;;;;;;7.57;4.28;;;5.40;99.90;;;;;;5018321;28;20458;-61
2021/12/09 12:40:15;;;;;;;12.65;3.90;;;5.30;99.90;;;;;;5030539;28;20084;-59
2021/12/09 12:42:52;;;;;;;10.15;3.88;;;5.40;99.90;;;;;;5032400;28;20466;-62
2021/12/09 12:45:50;;;;;;;10.48;4.38;;;5.20;99.90;;;;;;5032024;28;20395;-61
2021/12/09 12:51:23;;;;;;;8.00;4.07;;;5.10;99.90;;;;;;5032641;28;20356;-62
2021/12/09 12:53:54;;;;;;;17.58;4.50;;;5.10;99.90;;;;;;5031817;28;20065;-62
2021/12/09 12:56:33;;;;;;;14.02;5.68;;;5.10;99.90;;;;;;5032648;28;20025;-60
2021/12/09 12:59:15;;;;;;;9.73;3.92;;;5.10;99.90;;;;;;5029573;28;20126;-61
2021/12/09 13:02:03;;;;;;;10.95;3.35;;;5.20;99.90;;;;;;5032685;28;20069;-58
2021/12/09 13:07:51;;;;;;;10.32;3.95;;;5.10;99.90;;;;;;5032387;28;20132;-58
2021/12/09 13:10:45;;;;;;;13.15;3.53;;;5.10;99.90;;;;;;5032142;28;20035;-62
2021/12/09 13:14:21;;;;;;;9.40;2.92;;;5.10;99.90;;;;;;5030764;28;20120;-59
2021/12/09 13:19:22;;;;;;;8.65;3.80;;;5.40;99.90;;;;;;5031275;28;20068;-64
2021/12/09 13:22:12;;;;;;;12.98;4.43;;;5.50;99.90;;;;;;5031765;28;20045;-61
2021/12/09 13:27:57;;;;;;;8.48;3.22;;;5.50;99.90;;;;;;5031974;28;20057;-62
2021/12/09 13:47:33;;;;;;;10.85;2.90;;;5.80;99.90;;;;;;5011724;28;20127;-62
2021/12/09 13:55:31;;;;;;;6.97;3.13;;;5.80;99.90;;;;;;5031423;28;20025;-62